Time;durP1;ratioP1;P1;durP2;ratioP2;P2;SDS_P1;SDS_P2;PMS_P1;PMS_P2;Temp;Humidity;BMP_temperature;BMP_pressure;BME280_temperature;BME280_humidity;BME280_pressure;Samples;Min_cycle;Max_cycle;Signal;HPM_P1;HPM_P2
2022/05/24 00:00:55;;;;;;;2.63;2.43;;;20.90;67.30;;;;;;5081023;28;20519;-51
2022/05/24 00:03:34;;;;;;;2.77;2.57;;;20.90;67.10;;;;;;5063865;27;20614;-47
2022/05/24 00:06:16;;;;;;;2.70;2.50;;;20.90;67.20;;;;;;5119582;27;20515;-50
2022/05/24 00:08:57;;;;;;;2.73;2.20;;;20.90;67.10;;;;;;5063547;27;20594;-49
2022/05/24 00:11:45;;;;;;;2.37;2.17;;;20.90;67.10;;;;;;5079624;28;20520;-45
2022/05/24 00:17:19;;;;;;;2.40;2.27;;;20.90;67.10;;;;;;5066048;28;20742;-48
2022/05/24 00:20:01;;;;;;;2.00;1.90;;;20.90;67.10;;;;;;5072737;28;20521;-49
2022/05/24 00:22:42;;;;;;;3.00;2.70;;;20.90;67.10;;;;;;5103101;27;20543;-46
2022/05/24 00:25:24;;;;;;;2.60;2.40;;;20.90;67.10;;;;;;5079447;28;20573;-49
2022/05/24 00:28:06;;;;;;;2.00;1.90;;;20.90;67.00;;;;;;5074909;27;20965;-49
2022/05/24 00:30:50;;;;;;;2.50;2.30;;;20.90;67.10;;;;;;5081600;28;20659;-49
2022/05/24 00:33:32;;;;;;;2.47;2.27;;;20.90;67.00;;;;;;5084953;27;20539;-49
2022/05/24 00:36:13;;;;;;;2.53;2.33;;;20.90;67.10;;;;;;5118923;27;20561;-48
2022/05/24 00:38:53;;;;;;;2.80;2.60;;;20.90;66.90;;;;;;5060529;27;20897;-48
2022/05/24 00:41:39;;;;;;;2.67;2.47;;;20.80;66.80;;;;;;5081289;28;21123;-47
2022/05/24 00:44:25;;;;;;;2.13;2.03;;;20.80;66.80;;;;;;5103322;27;20528;-49
2022/05/24 00:47:11;;;;;;;2.60;2.40;;;20.80;66.80;;;;;;5081210;27;20539;-48
2022/05/24 00:49:56;;;;;;;2.50;2.30;;;20.80;66.80;;;;;;5081354;28;20715;-47
2022/05/24 00:52:45;;;;;;;2.90;2.70;;;20.80;66.80;;;;;;5067051;27;20539;-50
2022/05/24 00:55:27;;;;;;;3.03;2.83;;;20.80;66.70;;;;;;5079328;28;20524;-48
2022/05/24 00:58:13;;;;;;;2.60;2.40;;;20.80;66.80;;;;;;5067214;27;21135;-48
2022/05/24 01:00:54;;;;;;;2.63;2.43;;;20.80;66.80;;;;;;5122021;27;20574;-48
2022/05/24 01:03:35;;;;;;;3.05;2.65;;;20.80;66.80;;;;;;5105312;27;20599;-50
2022/05/24 01:06:15;;;;;;;2.83;2.63;;;20.80;66.80;;;;;;5117313;27;20580;-49
2022/05/24 01:08:58;;;;;;;2.77;2.57;;;20.80;66.80;;;;;;5064251;27;20595;-47
2022/05/24 01:11:43;;;;;;;2.37;2.17;;;20.80;66.80;;;;;;5100201;27;20576;-46
2022/05/24 01:14:25;;;;;;;4.87;2.70;;;20.80;66.80;;;;;;5080344;28;20581;-47
2022/05/24 01:17:07;;;;;;;2.60;2.40;;;20.80;66.80;;;;;;5109052;27;20541;-49
2022/05/24 01:19:50;;;;;;;2.57;2.37;;;20.80;66.80;;;;;;5205082;27;20531;-51
2022/05/24 01:22:54;;;;;;;2.63;2.40;;;20.80;66.90;;;;;;5041810;27;21069;-48
2022/05/24 01:25:44;;;;;;;2.10;2.00;;;20.80;66.80;;;;;;5100488;27;21095;-51
2022/05/24 01:28:29;;;;;;;2.03;1.93;;;20.80;66.80;;;;;;5079279;27;20565;-48
2022/05/24 01:31:09;;;;;;;2.73;2.40;;;20.80;66.80;;;;;;5121714;27;20799;-49
2022/05/24 01:36:49;;;;;;;2.10;2.00;;;20.80;66.80;;;;;;5116471;27;20537;-49
2022/05/24 01:39:30;;;;;;;2.87;2.67;;;20.70;66.70;;;;;;5142104;27;20496;-50
2022/05/24 01:42:11;;;;;;;2.67;2.47;;;20.70;66.80;;;;;;5070190;28;22022;-47
2022/05/24 01:44:58;;;;;;;2.70;2.50;;;20.70;66.70;;;;;;5120055;27;20518;-48
2022/05/24 01:47:42;;;;;;;2.33;2.13;;;20.70;66.60;;;;;;5051978;27;20539;-48
2022/05/24 01:50:24;;;;;;;3.57;2.40;;;20.70;66.60;;;;;;5080823;28;20519;-48
2022/05/24 01:53:10;;;;;;;2.27;2.17;;;20.70;66.50;;;;;;5059819;27;20564;-49
2022/05/24 01:55:53;;;;;;;2.23;2.03;;;20.70;66.40;;;;;;5079478;28;20545;-47
2022/05/24 01:58:35;;;;;;;2.23;2.03;;;20.70;66.20;;;;;;5051511;27;21136;-48
2022/05/24 02:01:25;;;;;;;1.90;1.80;;;20.70;66.30;;;;;;5083536;28;20516;-47
2022/05/24 02:04:07;;;;;;;1.93;1.83;;;20.70;66.40;;;;;;5085258;27;20543;-49
2022/05/24 02:06:58;;;;;;;2.00;1.90;;;20.70;66.40;;;;;;5099490;27;20610;-49
2022/05/24 02:09:41;;;;;;;1.90;1.67;;;20.70;66.30;;;;;;5086621;28;20577;-49
2022/05/24 02:12:24;;;;;;;2.87;2.37;;;20.70;66.20;;;;;;5076014;27;21061;-48
2022/05/24 02:15:08;;;;;;;2.10;1.90;;;20.60;66.10;;;;;;5127387;27;20505;-50
2022/05/24 02:17:55;;;;;;;2.10;2.00;;;20.70;66.20;;;;;;5062580;27;20598;-49
2022/05/24 02:20:38;;;;;;;2.00;1.80;;;20.60;66.00;;;;;;5087669;27;20514;-48
2022/05/24 02:23:20;;;;;;;2.20;2.00;;;20.60;65.90;;;;;;5040367;27;20536;-49
2022/05/24 02:26:01;;;;;;;2.10;2.00;;;20.60;66.10;;;;;;5086963;28;20504;-48
2022/05/24 02:28:41;;;;;;;2.37;2.17;;;20.60;66.10;;;;;;5067835;27;20605;-48
2022/05/24 02:31:24;;;;;;;2.10;1.90;;;20.60;66.10;;;;;;5128530;27;20810;-47
2022/05/24 02:34:05;;;;;;;2.00;1.90;;;20.60;65.90;;;;;;5025441;28;20536;-48
2022/05/24 02:36:47;;;;;;;2.13;2.03;;;20.60;65.80;;;;;;5101487;27;21056;-50
2022/05/24 02:39:28;;;;;;;2.53;2.33;;;20.60;65.80;;;;;;5087466;28;20535;-48
2022/05/24 02:42:08;;;;;;;2.27;2.07;;;20.60;65.80;;;;;;5077876;27;20583;-48
2022/05/24 02:44:50;;;;;;;2.43;2.30;;;20.60;66.00;;;;;;5088153;27;20522;-47
2022/05/24 02:47:31;;;;;;;1.87;1.77;;;20.60;65.70;;;;;;5107577;27;21178;-49
2022/05/24 02:50:12;;;;;;;2.23;2.13;;;20.60;65.80;;;;;;5126650;27;21027;-48
2022/05/24 02:52:52;;;;;;;2.40;2.20;;;20.60;65.70;;;;;;5097890;27;20603;-48
2022/05/24 02:55:37;;;;;;;2.20;2.00;;;20.60;65.90;;;;;;5086429;27;21009;-48
2022/05/24 02:58:18;;;;;;;1.77;1.67;;;20.60;65.80;;;;;;5053181;28;20562;-47
2022/05/24 03:01:00;;;;;;;1.83;1.73;;;20.60;65.90;;;;;;5128470;27;21120;-49
2022/05/24 03:03:41;;;;;;;2.93;2.30;;;20.60;65.70;;;;;;5062081;27;20619;-49
2022/05/24 03:06:24;;;;;;;2.00;1.90;;;20.50;65.70;;;;;;5080074;28;21299;-48
2022/05/24 03:15:00;;;;;;;2.17;2.00;;;20.50;65.60;;;;;;5080622;27;20938;-49
2022/05/24 03:17:44;;;;;;;3.27;1.50;;;20.50;65.50;;;;;;5100853;27;20616;-48
2022/05/24 03:20:25;;;;;;;2.70;2.50;;;20.50;65.50;;;;;;5079015;28;20565;-49
2022/05/24 03:23:06;;;;;;;2.50;2.20;;;20.50;65.50;;;;;;5086047;27;20968;-50
2022/05/24 03:25:47;;;;;;;2.37;2.10;;;20.50;65.60;;;;;;5120828;27;20536;-47
2022/05/24 03:28:28;;;;;;;2.40;2.10;;;20.50;65.60;;;;;;5072523;27;20610;-47
2022/05/24 03:31:09;;;;;;;2.03;1.47;;;20.50;65.50;;;;;;5106441;27;20524;-49
2022/05/24 03:33:50;;;;;;;1.77;1.67;;;20.50;65.40;;;;;;5047471;27;20588;-48
2022/05/24 03:36:32;;;;;;;2.40;2.20;;;20.50;65.20;;;;;;5122269;27;21128;-48
2022/05/24 03:39:13;;;;;;;3.20;2.17;;;20.50;65.20;;;;;;5080290;28;20569;-47
2022/05/24 03:41:54;;;;;;;3.53;1.80;;;20.40;65.30;;;;;;5095024;27;20521;-51
2022/05/24 03:44:37;;;;;;;2.37;2.17;;;20.50;65.40;;;;;;5120464;27;20516;-50
2022/05/24 03:47:18;;;;;;;1.87;1.77;;;20.50;65.40;;;;;;5070832;27;20538;-47
2022/05/24 03:49:58;;;;;;;1.93;1.83;;;20.40;65.30;;;;;;5164894;27;20567;-48
2022/05/24 03:52:40;;;;;;;2.10;1.50;;;20.40;65.20;;;;;;5087834;27;20555;-47
2022/05/24 03:55:22;;;;;;;3.27;1.73;;;20.40;65.20;;;;;;5080267;28;21090;-47
2022/05/24 03:58:04;;;;;;;2.13;1.50;;;20.40;65.00;;;;;;5065351;27;20558;-47
2022/05/24 04:00:46;;;;;;;1.97;1.87;;;20.40;65.10;;;;;;5102083;27;20514;-48
2022/05/24 04:03:27;;;;;;;3.43;1.83;;;20.40;64.90;;;;;;5065298;28;20958;-51
2022/05/24 04:06:09;;;;;;;2.30;1.63;;;20.40;65.20;;;;;;5111397;27;20602;-47
2022/05/24 04:08:50;;;;;;;2.40;1.63;;;20.40;65.20;;;;;;5062322;27;21072;-49
2022/05/24 04:11:30;;;;;;;2.07;1.87;;;20.40;65.20;;;;;;5122402;27;20930;-49
2022/05/24 04:14:11;;;;;;;2.10;2.00;;;20.40;65.30;;;;;;5116331;27;20586;-49
2022/05/24 04:16:52;;;;;;;2.00;1.87;;;20.40;65.20;;;;;;5078910;27;20570;-50
2022/05/24 04:19:32;;;;;;;2.90;1.93;;;20.40;65.40;;;;;;5062542;27;20611;-48
2022/05/24 04:22:14;;;;;;;1.70;1.37;;;20.30;65.30;;;;;;5075762;27;20531;-49
2022/05/24 04:24:55;;;;;;;2.13;2.00;;;20.40;65.40;;;;;;5078068;27;20532;-48
2022/05/24 04:27:35;;;;;;;2.00;1.80;;;20.30;65.30;;;;;;5061636;27;21020;-49
2022/05/24 04:30:17;;;;;;;1.50;1.40;;;20.40;65.50;;;;;;5082032;28;20593;-47
2022/05/24 04:32:58;;;;;;;2.07;1.87;;;20.40;65.50;;;;;;5080104;27;20549;-49
2022/05/24 04:35:37;;;;;;;1.73;1.20;;;20.40;65.20;;;;;;5107963;27;20929;-49
2022/05/24 04:38:19;;;;;;;1.90;1.60;;;20.30;65.30;;;;;;5079945;27;20544;-47
2022/05/24 04:43:58;;;;;;;2.30;1.67;;;20.30;65.30;;;;;;5048666;27;20553;-51
2022/05/24 04:49:38;;;;;;;1.53;1.43;;;20.30;65.30;;;;;;5142261;27;20507;-48
2022/05/24 04:52:23;;;;;;;1.80;1.70;;;20.30;65.30;;;;;;5070395;28;21089;-48
2022/05/24 04:55:06;;;;;;;1.60;1.50;;;20.30;65.40;;;;;;5100259;27;20518;-50
2022/05/24 04:57:47;;;;;;;2.37;1.80;;;20.30;65.30;;;;;;5040099;28;20564;-48
2022/05/24 05:00:28;;;;;;;1.90;1.40;;;20.30;65.20;;;;;;5081738;28;20524;-48
2022/05/24 05:03:11;;;;;;;2.07;1.80;;;20.30;65.30;;;;;;5085556;27;20540;-49
2022/05/24 05:05:56;;;;;;;1.70;1.60;;;20.30;65.40;;;;;;5120475;27;20513;-50
2022/05/24 05:08:38;;;;;;;1.57;1.47;;;20.30;65.30;;;;;;5064921;27;20582;-50
2022/05/24 05:11:19;;;;;;;2.60;2.40;;;20.30;65.20;;;;;;5081522;28;21358;-49
2022/05/24 05:14:00;;;;;;;1.63;1.53;;;20.20;64.90;;;;;;5099853;27;20542;-50
2022/05/24 05:16:42;;;;;;;2.17;1.80;;;20.20;64.90;;;;;;5076345;28;20785;-47
2022/05/24 05:19:24;;;;;;;1.40;1.30;;;20.20;65.00;;;;;;5079640;27;21107;-48
2022/05/24 05:22:05;;;;;;;1.90;1.70;;;20.20;65.20;;;;;;5055602;28;20532;-51
2022/05/24 05:24:46;;;;;;;2.90;1.80;;;20.20;65.00;;;;;;5101005;27;20565;-47
2022/05/24 05:27:28;;;;;;;1.70;1.60;;;20.20;65.10;;;;;;5084308;27;21219;-47
2022/05/24 05:33:10;;;;;;;1.53;1.33;;;20.20;65.20;;;;;;5069368;27;20598;-48
2022/05/24 05:35:51;;;;;;;2.97;1.70;;;20.20;65.10;;;;;;5074627;27;20570;-49
2022/05/24 05:38:32;;;;;;;1.53;1.43;;;20.20;65.20;;;;;;5056051;27;20550;-48
2022/05/24 05:41:13;;;;;;;1.40;1.30;;;20.20;65.00;;;;;;5103004;27;20518;-49
2022/05/24 05:43:59;;;;;;;2.03;1.47;;;20.20;65.10;;;;;;5057543;27;20549;-48
2022/05/24 05:46:40;;;;;;;1.90;1.80;;;20.20;65.10;;;;;;5116947;27;21120;-49
2022/05/24 05:49:21;;;;;;;1.83;1.40;;;20.20;64.80;;;;;;5124293;27;20550;-50
2022/05/24 05:52:01;;;;;;;2.00;1.47;;;20.20;65.00;;;;;;5068170;27;20531;-48
2022/05/24 05:54:43;;;;;;;1.20;1.10;;;20.20;64.90;;;;;;5083934;28;20579;-49
2022/05/24 05:57:24;;;;;;;1.70;1.53;;;20.20;64.70;;;;;;5104769;27;20549;-47
2022/05/24 06:00:08;;;;;;;1.20;1.03;;;20.20;64.80;;;;;;5127240;27;20590;-48
2022/05/24 06:02:57;;;;;;;1.50;1.40;;;20.10;64.80;;;;;;5102869;27;20532;-50
2022/05/24 06:05:48;;;;;;;1.73;1.40;;;20.10;64.70;;;;;;5104255;27;20542;-49
2022/05/24 06:08:29;;;;;;;1.30;1.20;;;20.20;65.00;;;;;;5111492;27;20533;-47
2022/05/24 06:11:12;;;;;;;1.67;1.20;;;20.10;64.70;;;;;;5104908;27;20543;-49
2022/05/24 06:13:53;;;;;;;2.27;1.47;;;20.10;64.70;;;;;;5059050;27;20548;-48
2022/05/24 06:16:40;;;;;;;1.27;1.17;;;20.10;64.70;;;;;;5085070;28;20519;-48
2022/05/24 06:19:21;;;;;;;1.53;1.43;;;20.10;64.80;;;;;;5104018;27;20525;-49
2022/05/24 06:22:02;;;;;;;1.57;1.20;;;20.10;64.70;;;;;;5118604;27;20525;-51
2022/05/24 06:24:46;;;;;;;1.20;1.10;;;20.10;64.80;;;;;;5125333;27;20537;-48
2022/05/24 06:27:28;;;;;;;1.30;1.20;;;20.10;66.10;;;;;;5074201;27;20908;-50
2022/05/24 06:30:10;;;;;;;1.60;1.23;;;20.10;64.70;;;;;;5086279;27;20541;-48
2022/05/24 06:32:51;;;;;;;2.08;1.05;;;20.10;64.40;;;;;;5108216;27;1237596;-50
2022/05/24 06:35:32;;;;;;;1.30;1.17;;;20.10;64.60;;;;;;5124298;27;20517;-49
2022/05/24 06:38:14;;;;;;;1.83;1.00;;;20.00;64.60;;;;;;5054699;27;20567;-48
2022/05/24 06:40:55;;;;;;;1.40;1.20;;;20.00;64.50;;;;;;5083100;28;20515;-51
2022/05/24 06:43:37;;;;;;;1.90;1.50;;;20.00;65.60;;;;;;5063156;27;20351;-49
2022/05/24 06:46:20;;;;;;;2.00;1.20;;;20.00;64.50;;;;;;5082729;28;20600;-47
2022/05/24 06:49:01;;;;;;;1.50;1.40;;;20.00;64.70;;;;;;5065935;27;20545;-50
2022/05/24 06:51:44;;;;;;;1.53;1.43;;;20.00;64.60;;;;;;5065145;28;20528;-50
2022/05/24 06:54:26;;;;;;;1.47;1.30;;;20.00;64.50;;;;;;5082273;27;20528;-50
2022/05/24 06:57:08;;;;;;;1.47;1.17;;;20.00;64.60;;;;;;5072554;27;20588;-48
2022/05/24 07:02:49;;;;;;;1.47;1.37;;;20.00;64.70;;;;;;5087671;27;20615;-48
2022/05/24 07:05:32;;;;;;;1.73;1.40;;;20.00;64.40;;;;;;5076978;27;20540;-48
2022/05/24 07:08:12;;;;;;;3.10;1.30;;;20.00;64.20;;;;;;5079357;27;1488526;-49
2022/05/24 07:10:55;;;;;;;1.63;1.53;;;19.90;64.20;;;;;;5119563;22;20303;-50
2022/05/24 07:13:37;;;;;;;1.40;1.30;;;19.90;64.30;;;;;;5088402;27;20549;-48
2022/05/24 07:16:20;;;;;;;1.90;1.37;;;19.90;65.10;;;;;;5138068;27;20599;-50
2022/05/24 07:19:03;;;;;;;1.40;1.30;;;19.90;64.20;;;;;;5042790;27;20637;-47
2022/05/24 07:21:44;;;;;;;1.37;1.27;;;19.90;64.00;;;;;;5074615;27;20562;-50
2022/05/24 07:24:25;;;;;;;1.47;1.20;;;19.90;64.20;;;;;;5079809;27;20565;-48
2022/05/24 07:27:10;;;;;;;1.20;1.10;;;19.90;63.70;;;;;;5072462;27;20547;-47
2022/05/24 07:29:51;;;;;;;1.23;1.07;;;19.90;63.80;;;;;;5102146;27;20896;-48
2022/05/24 07:32:34;;;;;;;1.20;1.10;;;19.90;64.00;;;;;;5094777;27;20543;-48
2022/05/24 07:35:15;;;;;;;1.80;1.30;;;19.90;63.80;;;;;;5085790;27;20560;-73
2022/05/24 07:37:55;;;;;;;1.13;0.90;;;19.90;63.80;;;;;;5061588;27;21066;-49
2022/05/24 07:46:46;;;;;;;1.50;1.13;;;19.90;63.70;;;;;;5115279;27;20933;-47
2022/05/24 07:49:26;;;;;;;1.20;1.10;;;19.90;63.90;;;;;;5140452;27;1289519;-51
2022/05/24 07:52:08;;;;;;;1.63;1.50;;;19.90;63.70;;;;;;5094534;27;20534;-47
2022/05/24 07:54:49;;;;;;;1.60;1.00;;;19.90;63.70;;;;;;5161937;27;20506;-50
2022/05/24 07:57:33;;;;;;;1.53;1.13;;;19.90;63.80;;;;;;5061646;27;20804;-49
2022/05/24 08:00:21;;;;;;;1.07;0.97;;;19.90;63.70;;;;;;5079654;28;20655;-48
2022/05/24 08:03:02;;;;;;;1.10;0.93;;;19.90;63.70;;;;;;5069855;27;21373;-50
2022/05/24 08:05:44;;;;;;;2.27;1.43;;;20.00;63.90;;;;;;5078450;28;20519;-48
2022/05/24 08:08:25;;;;;;;2.13;0.93;;;20.00;63.90;;;;;;5039604;27;20574;-47
2022/05/24 08:11:07;;;;;;;1.33;1.10;;;20.00;63.80;;;;;;5121160;27;20524;-49
2022/05/24 08:13:50;;;;;;;1.43;1.33;;;20.00;63.80;;;;;;5079709;27;21171;-48
2022/05/24 08:16:32;;;;;;;1.07;0.90;;;20.00;63.90;;;;;;5080964;27;20648;-49
2022/05/24 08:19:12;;;;;;;1.20;1.10;;;20.00;63.80;;;;;;5079827;27;20519;-48
2022/05/24 08:21:55;;;;;;;2.47;1.83;;;19.90;63.70;;;;;;5054957;28;21075;-48
2022/05/24 08:24:38;;;;;;;1.57;1.00;;;20.00;63.80;;;;;;5120364;27;20595;-55
2022/05/24 08:27:20;;;;;;;1.40;0.97;;;20.00;63.80;;;;;;5111696;27;20968;-48
2022/05/24 08:30:06;;;;;;;1.37;0.87;;;19.90;63.70;;;;;;5162783;27;20514;-50
2022/05/24 08:32:48;;;;;;;2.07;1.10;;;19.90;63.80;;;;;;5075935;27;21137;-49
2022/05/24 08:35:31;;;;;;;1.23;0.90;;;19.90;63.70;;;;;;5076557;28;20596;-50
2022/05/24 08:38:17;;;;;;;1.50;0.90;;;19.90;63.80;;;;;;5061042;27;20719;-46
2022/05/24 08:41:02;;;;;;;3.43;1.30;;;19.90;63.70;;;;;;5122024;27;20545;-51
2022/05/24 08:50:16;;;;;;;1.23;1.13;;;19.90;63.70;;;;;;5164412;27;20505;-48
2022/05/24 08:53:04;;;;;;;1.00;1.00;;;19.90;63.80;;;;;;5068822;27;20673;-48
2022/05/24 08:55:51;;;;;;;2.30;1.03;;;19.90;63.70;;;;;;5080885;28;20660;-51
2022/05/24 08:58:36;;;;;;;3.60;1.20;;;19.90;63.80;;;;;;5039458;28;20580;-48
2022/05/24 09:01:22;;;;;;;0.90;0.90;;;19.90;63.80;;;;;;5079603;28;20592;-49
2022/05/24 09:04:05;;;;;;;1.20;1.10;;;19.90;63.70;;;;;;5044999;27;20582;-50
2022/05/24 09:06:59;;;;;;;0.93;0.83;;;19.90;63.70;;;;;;5117542;27;20555;-47
2022/05/24 09:09:51;;;;;;;1.20;1.10;;;19.90;63.80;;;;;;5081649;28;20847;-48
2022/05/24 09:12:45;;;;;;;1.50;1.00;;;19.90;63.70;;;;;;5066944;27;20608;-49
2022/05/24 09:15:33;;;;;;;0.87;0.87;;;19.90;63.70;;;;;;5119296;27;20586;-50
2022/05/24 09:18:24;;;;;;;2.53;1.30;;;19.90;63.70;;;;;;5055622;27;21200;-47
2022/05/24 09:21:05;;;;;;;0.97;0.90;;;19.90;63.70;;;;;;5122279;27;20501;-49
2022/05/24 09:23:48;;;;;;;1.80;0.90;;;19.90;63.70;;;;;;5052582;27;20530;-50
2022/05/24 09:26:34;;;;;;;1.57;0.97;;;19.90;63.70;;;;;;5081876;27;20544;-46
2022/05/24 09:29:17;;;;;;;1.13;1.03;;;19.90;63.70;;;;;;5081980;27;20563;-48
2022/05/24 09:32:00;;;;;;;1.60;1.10;;;19.90;63.60;;;;;;5118144;27;21104;-53
2022/05/24 09:34:41;;;;;;;1.03;0.80;;;19.90;63.70;;;;;;5080622;28;20554;-47
2022/05/24 09:37:28;;;;;;;1.43;1.30;;;19.90;63.50;;;;;;5112300;27;20581;-48
2022/05/24 09:40:20;;;;;;;1.20;1.00;;;19.80;62.80;;;;;;5122206;27;20570;-49
2022/05/24 09:43:18;;;;;;;1.40;1.30;;;19.90;62.90;;;;;;5034896;27;20637;-49
2022/05/24 09:46:04;;;;;;;1.07;0.97;;;19.90;62.60;;;;;;5121192;27;20952;-49
2022/05/24 09:48:56;;;;;;;1.30;1.20;;;19.80;62.60;;;;;;5070249;27;20570;-47
2022/05/24 09:51:43;;;;;;;1.07;0.97;;;19.80;62.20;;;;;;5094756;27;20561;-47
2022/05/24 09:54:30;;;;;;;1.10;1.00;;;19.90;62.70;;;;;;5119561;27;20522;-49
2022/05/24 09:57:23;;;;;;;1.23;1.13;;;19.80;62.70;;;;;;5113815;27;20542;-50
2022/05/24 10:00:16;;;;;;;1.30;1.00;;;19.80;62.80;;;;;;5081163;28;20521;-47
2022/05/24 10:03:06;;;;;;;1.20;1.10;;;19.80;62.60;;;;;;5071639;27;20553;-47
2022/05/24 10:05:56;;;;;;;1.23;1.17;;;19.80;62.70;;;;;;5058706;27;20527;-47
2022/05/24 10:08:44;;;;;;;1.10;1.00;;;19.80;62.20;;;;;;5085494;27;20582;-49
2022/05/24 10:11:32;;;;;;;1.10;1.00;;;19.80;62.50;;;;;;5081256;27;20507;-49
2022/05/24 10:14:36;;;;;;;0.83;0.60;;;19.80;62.40;;;;;;5059215;27;20860;-47
2022/05/24 10:17:27;;;;;;;2.23;1.37;;;19.80;62.10;;;;;;5127019;27;20297;-50
2022/05/24 10:20:17;;;;;;;1.47;1.10;;;19.80;62.20;;;;;;5077589;28;20629;-47
2022/05/24 10:23:07;;;;;;;1.70;1.23;;;19.90;62.30;;;;;;5091675;27;20561;-47
2022/05/24 10:25:56;;;;;;;2.30;1.43;;;19.80;62.20;;;;;;5100609;27;20549;-50
2022/05/24 10:28:45;;;;;;;1.10;0.80;;;19.80;61.60;;;;;;5119320;27;20559;-49
2022/05/24 10:31:40;;;;;;;3.23;1.20;;;19.80;61.80;;;;;;5115745;27;20668;-47
2022/05/24 10:40:49;;;;;;;1.50;1.40;;;19.80;62.10;;;;;;5123105;27;20924;-50
2022/05/24 10:43:55;;;;;;;3.23;1.10;;;19.80;62.10;;;;;;4987360;28;20581;-47
2022/05/24 10:46:43;;;;;;;1.30;1.00;;;19.80;61.90;;;;;;5081132;27;20533;-49
2022/05/24 10:49:32;;;;;;;0.87;0.87;;;19.80;62.10;;;;;;5141893;27;20549;-47
2022/05/24 10:52:24;;;;;;;1.47;1.37;;;19.80;62.20;;;;;;5112604;27;20533;-47
2022/05/24 10:55:14;;;;;;;2.83;1.40;;;19.80;62.30;;;;;;5121441;27;20530;-47
2022/05/24 10:57:57;;;;;;;1.40;1.30;;;19.80;62.10;;;;;;5047478;28;20561;-48
2022/05/24 11:00:44;;;;;;;2.00;0.77;;;19.80;62.10;;;;;;5122042;27;20531;-49
2022/05/24 11:03:32;;;;;;;1.00;0.90;;;19.80;62.00;;;;;;5067070;27;20550;-47
2022/05/24 11:06:22;;;;;;;1.27;1.00;;;19.80;61.70;;;;;;5077981;28;20993;-50
2022/05/24 11:09:09;;;;;;;1.47;1.20;;;19.80;61.80;;;;;;5037784;27;21095;-48
2022/05/24 11:12:03;;;;;;;1.50;1.10;;;19.80;61.80;;;;;;5078982;27;20514;-49
2022/05/24 11:14:51;;;;;;;1.00;0.90;;;19.80;61.10;;;;;;5100845;27;20518;-47
2022/05/24 11:17:32;;;;;;;1.03;0.83;;;19.80;61.10;;;;;;5136573;27;20587;-48
2022/05/24 11:20:16;;;;;;;1.63;1.10;;;19.80;61.10;;;;;;5074446;28;20565;-49
2022/05/24 11:23:07;;;;;;;1.07;0.97;;;19.80;61.00;;;;;;5109863;27;20361;-47
2022/05/24 11:25:53;;;;;;;1.17;0.80;;;19.80;61.10;;;;;;5130019;27;20579;-72
2022/05/24 11:28:43;;;;;;;1.13;0.90;;;19.80;60.70;;;;;;5075152;27;20610;-53
2022/05/24 11:31:31;;;;;;;1.03;0.90;;;19.80;60.40;;;;;;5164949;27;20543;-46
2022/05/24 11:34:19;;;;;;;1.40;0.60;;;19.80;60.70;;;;;;5059938;27;20540;-50
2022/05/24 11:37:09;;;;;;;1.10;0.97;;;19.80;60.70;;;;;;5076030;27;20588;-50
2022/05/24 11:39:51;;;;;;;1.70;1.10;;;19.80;60.50;;;;;;5081827;27;20545;-48
2022/05/24 11:42:46;;;;;;;1.80;1.10;;;19.80;60.70;;;;;;5097681;27;20598;-50
2022/05/24 11:45:58;;;;;;;1.10;1.00;;;19.80;61.00;;;;;;5080682;27;21075;-48
2022/05/24 11:48:52;;;;;;;1.50;1.10;;;19.80;60.70;;;;;;5034940;27;21146;-48
2022/05/24 11:51:41;;;;;;;1.67;1.27;;;19.80;61.10;;;;;;5068577;28;20559;-47
2022/05/24 11:54:57;;;;;;;1.37;1.27;;;19.80;61.40;;;;;;5142451;27;21020;-48
2022/05/24 11:57:44;;;;;;;2.37;1.13;;;19.80;61.20;;;;;;5067118;27;20977;-48
2022/05/24 12:00:34;;;;;;;1.07;0.97;;;19.80;61.20;;;;;;5122092;27;20574;-47
2022/05/24 12:09:28;;;;;;;1.77;0.90;;;19.80;60.20;;;;;;5143212;27;20396;-47
2022/05/24 12:12:24;;;;;;;1.50;1.10;;;19.80;60.50;;;;;;5096049;27;20582;-48
2022/05/24 12:15:18;;;;;;;1.10;0.87;;;19.80;60.30;;;;;;5081941;27;20780;-48
2022/05/24 12:20:59;;;;;;;1.60;1.03;;;19.80;60.00;;;;;;5143745;27;20599;-49
2022/05/24 12:23:43;;;;;;;1.17;0.83;;;19.80;59.80;;;;;;5028245;27;20630;-48
2022/05/24 12:27:14;;;;;;;1.10;0.90;;;19.80;59.50;;;;;;5056162;28;20915;-50
2022/05/24 12:30:03;;;;;;;0.83;0.83;;;19.80;60.00;;;;;;5082040;27;20547;-47
2022/05/24 12:32:45;;;;;;;1.87;1.03;;;19.80;59.50;;;;;;5085845;27;20551;-49
2022/05/24 12:35:28;;;;;;;1.47;0.90;;;19.80;59.30;;;;;;5081110;27;20567;-46
2022/05/24 12:38:20;;;;;;;1.53;1.10;;;19.80;59.50;;;;;;5039187;27;20577;-50
2022/05/24 12:41:14;;;;;;;0.70;0.63;;;19.80;59.30;;;;;;5102350;27;20567;-46
2022/05/24 12:44:00;;;;;;;1.00;0.90;;;19.80;59.80;;;;;;5045686;27;21267;-50
2022/05/24 12:46:57;;;;;;;1.27;0.70;;;19.80;59.80;;;;;;5118956;27;20964;-50
2022/05/24 12:49:54;;;;;;;1.10;0.80;;;19.80;59.90;;;;;;5080582;28;20539;-48
2022/05/24 12:52:42;;;;;;;1.10;0.97;;;19.80;59.30;;;;;;5116218;27;20528;-50
2022/05/24 12:58:39;;;;;;;0.90;0.90;;;19.80;59.40;;;;;;5082648;27;20633;-45
2022/05/24 13:01:31;;;;;;;3.47;1.37;;;19.90;60.50;;;;;;5121553;27;20599;-50
2022/05/24 13:04:21;;;;;;;4.33;1.30;;;19.90;59.50;;;;;;5140595;27;20520;-47
2022/05/24 13:07:42;;;;;;;3.83;1.00;;;20.00;58.60;;;;;;5069511;27;20583;-48
2022/05/24 13:10:27;;;;;;;2.90;1.40;;;20.10;57.90;;;;;;5079533;28;20447;-48
2022/05/24 13:13:14;;;;;;;1.77;1.00;;;20.20;56.90;;;;;;5033448;27;20901;-48
2022/05/24 13:16:00;;;;;;;1.37;1.23;;;20.20;57.30;;;;;;5080232;27;20565;-49
2022/05/24 13:18:55;;;;;;;2.43;1.00;;;20.20;57.70;;;;;;5062904;27;20848;-48
2022/05/24 13:21:35;;;;;;;1.17;1.03;;;20.30;57.80;;;;;;5036616;27;1420937;-49
2022/05/24 13:24:19;;;;;;;2.07;1.10;;;20.20;58.10;;;;;;5080316;28;21050;-47
2022/05/24 13:27:04;;;;;;;1.13;0.90;;;20.20;58.30;;;;;;5069467;28;20624;-48
2022/05/24 13:36:23;;;;;;;1.43;1.03;;;20.30;59.70;;;;;;5081408;28;20535;-73
2022/05/24 13:39:17;;;;;;;1.80;1.30;;;20.30;58.30;;;;;;5082635;27;21126;-49
2022/05/24 13:42:02;;;;;;;1.40;0.83;;;20.30;58.30;;;;;;5074160;27;20537;-48
2022/05/24 13:45:19;;;;;;;1.90;1.08;;;20.30;58.10;;;;;;5134683;27;1200216;-53
2022/05/24 13:48:01;;;;;;;1.27;1.17;;;20.30;58.40;;;;;;5074414;27;20957;-48
2022/05/24 13:50:45;;;;;;;0.93;0.80;;;20.30;58.10;;;;;;5080836;28;20562;-49
2022/05/24 13:53:35;;;;;;;1.07;0.73;;;20.40;58.40;;;;;;5091907;27;21088;-50
2022/05/24 13:56:23;;;;;;;1.23;0.83;;;20.30;58.50;;;;;;5080189;28;20917;-47
2022/05/24 13:59:10;;;;;;;1.17;1.07;;;20.40;58.60;;;;;;5128623;27;20926;-47
2022/05/24 14:02:05;;;;;;;1.53;1.07;;;20.40;58.50;;;;;;5081342;28;20573;-47
2022/05/24 14:04:46;;;;;;;0.93;0.83;;;20.40;58.60;;;;;;5101213;27;20551;-49
2022/05/24 14:07:31;;;;;;;0.97;0.90;;;20.40;59.10;;;;;;5116062;27;20541;-47
2022/05/24 14:10:15;;;;;;;2.43;0.87;;;20.30;58.90;;;;;;5164114;27;20529;-49
2022/05/24 14:12:57;;;;;;;1.07;0.97;;;20.40;59.30;;;;;;5091227;27;20563;-48
2022/05/24 14:15:42;;;;;;;1.20;1.10;;;20.40;59.50;;;;;;5141605;27;20584;-48
2022/05/24 14:18:24;;;;;;;1.00;0.90;;;20.40;59.50;;;;;;5040677;28;20959;-47
2022/05/24 14:21:10;;;;;;;1.77;1.17;;;20.40;59.50;;;;;;5116718;27;20534;-49
2022/05/24 14:23:50;;;;;;;1.37;0.90;;;20.40;59.70;;;;;;5062944;27;20598;-47
2022/05/24 14:26:34;;;;;;;1.60;1.00;;;20.40;59.90;;;;;;5192745;27;20531;-48
2022/05/24 14:29:18;;;;;;;4.83;1.87;;;20.40;59.90;;;;;;5057487;27;20628;-47
2022/05/24 14:32:04;;;;;;;0.90;0.90;;;20.40;59.60;;;;;;5101856;27;20519;-48
2022/05/24 14:34:52;;;;;;;1.20;0.90;;;20.40;59.60;;;;;;5131450;27;20455;-48
2022/05/24 14:37:33;;;;;;;1.30;1.03;;;20.40;59.80;;;;;;5099175;27;20536;-50
2022/05/24 14:40:18;;;;;;;1.30;1.07;;;20.40;59.90;;;;;;5101806;27;20523;-49
2022/05/24 14:42:58;;;;;;;1.10;1.00;;;20.40;59.90;;;;;;5113037;27;20559;-49
2022/05/24 14:45:43;;;;;;;0.70;0.67;;;20.40;59.90;;;;;;5080245;28;20649;-48
2022/05/24 14:48:32;;;;;;;2.87;1.10;;;20.40;59.90;;;;;;5059187;27;20580;-49
2022/05/24 14:51:33;;;;;;;1.93;1.10;;;20.40;60.00;;;;;;5114953;27;20566;-46
2022/05/24 14:54:22;;;;;;;2.40;0.97;;;20.40;60.00;;;;;;5101381;27;20599;-50
2022/05/24 15:21:11;;;;;;;1.10;0.80;;;20.40;60.40;;;;;;5137255;27;21048;-48
2022/05/24 15:38:43;;;;;;;;;;;;;;;;;;;;;
2022/05/24 15:45:27;;;;;;;1.70;1.10;;;20.40;60.30;;;;;;5101046;27;20787;-47
2022/05/24 15:51:24;;;;;;;1.20;0.97;;;20.40;59.70;;;;;;5119372;27;20517;-47
2022/05/24 15:54:09;;;;;;;1.10;1.00;;;20.40;59.70;;;;;;5016150;28;20308;-48
2022/05/24 15:56:52;;;;;;;1.07;0.97;;;20.40;59.80;;;;;;5142608;27;20512;-48
2022/05/24 15:59:44;;;;;;;1.77;0.70;;;20.40;59.70;;;;;;5081880;28;20519;-50
2022/05/24 16:02:50;;;;;;;1.07;0.97;;;20.40;59.70;;;;;;5100807;27;20516;-47
2022/05/24 16:10:59;;;;;;;0.83;0.83;;;20.40;59.70;;;;;;5112434;27;20274;-48
2022/05/24 16:14:14;;;;;;;1.40;0.80;;;20.40;59.10;;;;;;5024111;28;20541;-48